createdAt,value
2024-02-28T00:01:13.548Z,16.50
2024-02-28T00:03:40.088Z,17.50
2024-02-28T00:06:06.706Z,18.33
2024-02-28T00:08:33.145Z,18.35
2024-02-28T00:10:59.640Z,18.60
2024-02-28T00:13:26.112Z,17.25
2024-02-28T00:15:52.678Z,17.60
2024-02-28T00:18:20.309Z,19.35
2024-02-28T00:20:46.979Z,18.25
2024-02-28T00:23:13.441Z,19.85
2024-02-28T00:25:39.916Z,16.75
2024-02-28T00:28:06.355Z,18.60
2024-02-28T00:30:33.990Z,18.00
2024-02-28T00:33:01.414Z,16.33
2024-02-28T00:35:27.913Z,17.73
2024-02-28T00:37:54.400Z,18.23
2024-02-28T00:40:20.959Z,18.17
2024-02-28T00:42:47.636Z,16.95
2024-02-28T00:45:14.117Z,18.70
2024-02-28T00:47:41.464Z,17.08
2024-02-28T00:50:08.503Z,16.98
2024-02-28T00:52:35.025Z,19.63
2024-02-28T00:55:01.672Z,17.45
2024-02-28T00:57:28.277Z,17.75
2024-02-28T00:59:55.756Z,17.10
2024-02-28T01:02:22.783Z,18.02
2024-02-28T01:04:49.354Z,18.38
2024-02-28T01:07:15.851Z,19.20
2024-02-28T01:09:42.312Z,19.58
2024-02-28T01:12:08.948Z,19.50
2024-02-28T01:14:35.406Z,19.60
2024-02-28T01:17:01.845Z,18.20
2024-02-28T01:19:28.338Z,18.85
2024-02-28T01:21:54.870Z,20.17
2024-02-28T01:24:21.562Z,16.83
2024-02-28T01:26:48.056Z,16.92
2024-02-28T01:29:14.535Z,18.23
2024-02-28T01:31:41.027Z,16.33
2024-02-28T01:34:07.876Z,16.75
2024-02-28T01:36:34.369Z,19.00
2024-02-28T01:39:00.822Z,17.98
2024-02-28T01:41:27.274Z,16.92
2024-02-28T01:43:54.793Z,16.98
2024-02-28T01:46:25.208Z,16.55
2024-02-28T01:48:52.130Z,16.95
2024-02-28T01:51:19.069Z,16.88
2024-02-28T01:53:46.600Z,18.45
2024-02-28T01:56:15.544Z,17.00
2024-02-28T01:58:44.596Z,17.77
2024-02-28T02:01:12.318Z,18.38
2024-02-28T02:03:38.897Z,17.40
2024-02-28T02:06:06.324Z,16.42
2024-02-28T02:08:33.975Z,15.60
2024-02-28T02:11:00.517Z,16.15
2024-02-28T02:13:26.993Z,18.08
2024-02-28T02:15:53.585Z,16.95
2024-02-28T02:18:20.227Z,16.67
2024-02-28T02:20:51.524Z,17.45
2024-02-28T02:23:18.001Z,15.35
2024-02-28T02:25:54.627Z,16.33
2024-02-28T02:30:48.506Z,16.27
2024-02-28T02:33:15.459Z,14.48
2024-02-28T02:35:41.927Z,14.32
2024-02-28T02:38:08.366Z,13.82
2024-02-28T02:40:34.767Z,13.27
2024-02-28T02:43:01.210Z,14.68
2024-02-28T02:45:27.689Z,15.00
2024-02-28T02:47:54.220Z,13.20
2024-02-28T02:50:20.723Z,13.38
2024-02-28T02:52:47.199Z,12.88
2024-02-28T02:55:13.838Z,14.35
2024-02-28T02:57:41.201Z,14.75
2024-02-28T03:00:11.902Z,13.35
2024-02-28T03:02:41.226Z,13.95
2024-02-28T03:05:08.432Z,13.25
2024-02-28T03:07:34.906Z,14.32
2024-02-28T03:10:01.434Z,13.55
2024-02-28T03:12:27.963Z,13.95
2024-02-28T03:14:54.436Z,13.73
2024-02-28T03:17:20.988Z,12.85
2024-02-28T03:19:48.300Z,12.27
2024-02-28T03:22:14.929Z,13.80
2024-02-28T03:24:41.470Z,12.57
2024-02-28T03:27:07.991Z,13.38
2024-02-28T03:29:34.467Z,11.85
2024-02-28T03:32:01.163Z,12.13
2024-02-28T03:34:27.733Z,11.05
2024-02-28T03:36:54.298Z,12.60
2024-02-28T03:39:20.818Z,12.10
2024-02-28T03:41:47.264Z,12.25
2024-02-28T03:44:13.858Z,11.18
2024-02-28T03:46:40.289Z,11.35
2024-02-28T03:49:06.935Z,11.65
2024-02-28T03:51:33.436Z,11.75
2024-02-28T03:53:59.889Z,10.75
2024-02-28T03:56:27.296Z,11.77
2024-02-28T03:58:54.555Z,11.50
2024-02-28T04:01:21.193Z,10.95
2024-02-28T04:03:47.841Z,10.30
2024-02-28T04:06:14.576Z,11.27
2024-02-28T04:08:44.573Z,12.90
2024-02-28T04:11:11.184Z,11.77
2024-02-28T04:13:37.629Z,11.23
2024-02-28T04:16:04.788Z,12.43
2024-02-28T04:18:31.510Z,10.88
2024-02-28T04:20:58.164Z,11.73
2024-02-28T04:23:24.613Z,11.85
2024-02-28T04:25:51.069Z,11.07
2024-02-28T04:28:17.571Z,10.48
2024-02-28T04:30:44.788Z,10.65
2024-02-28T04:33:11.345Z,11.15
2024-02-28T04:35:37.832Z,11.02
2024-02-28T04:38:04.513Z,9.80
2024-02-28T04:40:30.973Z,11.15
2024-02-28T04:42:57.472Z,10.73
2024-02-28T04:45:24.116Z,10.27
2024-02-28T04:47:52.831Z,11.30
2024-02-28T04:50:19.444Z,10.90
2024-02-28T04:52:45.869Z,10.65
2024-02-28T04:55:13.437Z,11.80
2024-02-28T04:57:40.086Z,7.95
2024-02-28T05:00:08.618Z,9.65
2024-02-28T05:02:35.222Z,10.00
2024-02-28T05:05:01.918Z,10.93
2024-02-28T05:07:28.393Z,8.93
2024-02-28T05:09:54.927Z,11.43
2024-02-28T05:12:21.410Z,11.80
2024-02-28T05:14:47.843Z,10.13
2024-02-28T05:17:14.355Z,10.98
2024-02-28T05:19:40.978Z,10.95
2024-02-28T05:22:07.727Z,10.52
2024-02-28T05:24:34.250Z,9.52
2024-02-28T05:27:00.764Z,10.38
2024-02-28T05:29:27.359Z,10.32
2024-02-28T05:31:53.898Z,10.82
2024-02-28T05:34:20.926Z,8.80
2024-02-28T05:36:47.624Z,7.70
2024-02-28T05:39:14.356Z,9.80
2024-02-28T05:41:40.829Z,7.45
2024-02-28T05:44:07.467Z,7.97
2024-02-28T05:46:34.393Z,6.95
2024-02-28T05:49:00.966Z,7.03
2024-02-28T05:51:27.551Z,6.55
2024-02-28T05:53:53.999Z,7.82
2024-02-28T05:56:20.958Z,7.22
2024-02-28T05:58:48.696Z,9.77
2024-02-28T06:01:19.609Z,9.65
2024-02-28T06:03:48.473Z,11.02
2024-02-28T06:06:15.543Z,11.02
2024-02-28T06:08:42.632Z,12.45
2024-02-28T06:11:09.587Z,11.23
2024-02-28T06:13:36.777Z,12.65
2024-02-28T06:16:04.475Z,12.73
2024-02-28T06:18:34.570Z,12.68
2024-02-28T06:21:04.127Z,12.63
2024-02-28T06:23:30.899Z,11.30
2024-02-28T06:25:58.224Z,11.38
2024-02-28T06:28:25.332Z,12.10
2024-02-28T06:30:51.953Z,12.48
2024-02-28T06:33:18.770Z,15.82
2024-02-28T06:35:45.512Z,11.05
2024-02-28T06:38:11.997Z,10.60
2024-02-28T06:40:39.213Z,11.40
2024-02-28T06:43:06.276Z,11.23
2024-02-28T06:45:33.114Z,11.13
2024-02-28T06:48:00.020Z,12.90
2024-02-28T06:50:26.790Z,11.02
2024-02-28T06:52:54.784Z,11.52
2024-02-28T06:55:22.099Z,9.98
2024-02-28T06:57:48.757Z,10.00
2024-02-28T07:00:16.097Z,10.90
2024-02-28T07:02:42.799Z,10.48
2024-02-28T07:05:09.521Z,8.90
2024-02-28T07:07:36.057Z,9.82
2024-02-28T07:10:05.585Z,8.80
2024-02-28T07:12:32.450Z,8.15
2024-02-28T07:14:59.278Z,8.68
2024-02-28T07:17:25.965Z,9.60
2024-02-28T07:19:52.592Z,9.32
2024-02-28T07:22:19.165Z,9.00
2024-02-28T07:24:45.839Z,9.07
2024-02-28T07:27:12.473Z,10.23
2024-02-28T07:29:39.014Z,10.18
2024-02-28T07:32:06.166Z,10.57
2024-02-28T07:34:32.687Z,9.18
2024-02-28T07:36:59.189Z,10.02
2024-02-28T07:39:26.026Z,9.85
2024-02-28T07:41:55.864Z,8.73
2024-02-28T07:44:22.953Z,10.20
2024-02-28T07:46:51.589Z,11.32
2024-02-28T07:49:18.111Z,9.40
2024-02-28T07:51:44.755Z,10.45
2024-02-28T07:54:11.301Z,9.93
2024-02-28T07:56:37.720Z,12.00
2024-02-28T07:59:04.232Z,10.45
2024-02-28T08:01:32.058Z,10.02
2024-02-28T08:03:58.842Z,11.27
2024-02-28T08:06:25.548Z,10.65
2024-02-28T08:08:52.270Z,10.88
2024-02-28T08:11:20.111Z,10.57
2024-02-28T08:13:46.820Z,11.05
2024-02-28T08:16:13.714Z,10.38
2024-02-28T08:18:40.370Z,11.43
2024-02-28T08:21:06.947Z,11.10
2024-02-28T08:23:33.398Z,12.60
2024-02-28T08:25:59.849Z,10.75
2024-02-28T08:28:26.407Z,11.32
2024-02-28T08:30:52.932Z,12.23
2024-02-28T08:33:21.810Z,12.68
2024-02-28T08:35:51.257Z,12.43
2024-02-28T08:38:17.798Z,12.77
2024-02-28T08:40:44.266Z,14.25
2024-02-28T08:43:10.749Z,11.38
2024-02-28T08:45:38.862Z,11.38
2024-02-28T08:48:06.967Z,12.13
2024-02-28T08:50:33.512Z,11.05
2024-02-28T08:52:59.962Z,11.00
2024-02-28T08:55:26.537Z,13.85
2024-02-28T08:57:53.368Z,11.30
2024-02-28T09:00:20.039Z,12.55
2024-02-28T09:02:46.589Z,11.88
2024-02-28T09:05:13.320Z,11.90
2024-02-28T09:07:39.802Z,12.68
2024-02-28T09:10:07.638Z,11.20
2024-02-28T09:12:34.278Z,12.63
2024-02-28T09:15:01.116Z,10.82
2024-02-28T09:17:27.707Z,10.50
2024-02-28T09:19:55.200Z,10.38
2024-02-28T09:22:22.540Z,10.20
2024-02-28T09:24:50.063Z,12.48
2024-02-28T09:27:16.891Z,11.23
2024-02-28T09:29:43.424Z,11.48
2024-02-28T09:32:10.360Z,11.25
2024-02-28T09:34:38.464Z,12.40
2024-02-28T09:37:07.653Z,14.63
2024-02-28T09:39:34.126Z,10.48
2024-02-28T09:42:01.539Z,10.70
2024-02-28T09:44:28.269Z,9.65
2024-02-28T09:46:54.733Z,10.32
2024-02-28T09:49:21.506Z,11.02
2024-02-28T09:51:53.772Z,11.00
2024-02-28T09:54:20.925Z,11.52
2024-02-28T09:56:49.214Z,11.13
2024-02-28T09:59:17.085Z,10.10
2024-02-28T10:01:45.650Z,9.85
2024-02-28T10:04:14.676Z,10.13
2024-02-28T10:06:42.075Z,9.48
2024-02-28T10:09:08.839Z,9.30
2024-02-28T10:11:36.771Z,10.23
2024-02-28T10:14:03.689Z,9.02
2024-02-28T10:16:30.448Z,9.88
2024-02-28T10:18:57.171Z,9.30
2024-02-28T10:21:25.457Z,9.55
2024-02-28T10:23:52.070Z,9.05
2024-02-28T10:26:18.694Z,9.82
2024-02-28T10:28:46.543Z,9.63
2024-02-28T10:31:13.599Z,9.75
2024-02-28T10:33:43.016Z,9.68
2024-02-28T10:36:10.136Z,9.90
2024-02-28T10:38:39.512Z,9.57
2024-02-28T10:41:08.434Z,9.52
2024-02-28T10:43:36.449Z,10.20
2024-02-28T10:48:32.699Z,9.80
2024-02-28T10:50:59.709Z,10.02
2024-02-28T10:53:39.812Z,9.38
2024-02-28T10:56:07.130Z,9.57
2024-02-28T10:58:40.533Z,10.63
2024-02-28T11:01:09.419Z,9.27
2024-02-28T11:03:36.344Z,9.30
2024-02-28T11:06:02.994Z,9.45
2024-02-28T11:08:30.954Z,9.05
2024-02-28T11:11:04.916Z,9.00
2024-02-28T11:13:35.681Z,10.00
2024-02-28T11:16:09.526Z,8.80
2024-02-28T11:18:36.175Z,8.38
2024-02-28T11:21:05.023Z,9.50
2024-02-28T11:23:38.821Z,9.05
2024-02-28T11:26:05.408Z,8.93
2024-02-28T11:28:31.848Z,10.13
2024-02-28T11:30:58.372Z,9.90
2024-02-28T11:33:25.107Z,8.68
2024-02-28T11:35:59.088Z,12.38
2024-02-28T11:38:28.588Z,9.10
2024-02-28T11:40:56.266Z,9.80
2024-02-28T11:43:23.295Z,9.38
2024-02-28T11:45:50.006Z,9.35
2024-02-28T11:48:17.393Z,8.93
2024-02-28T11:50:44.053Z,9.18
2024-02-28T11:53:10.637Z,8.80
2024-02-28T11:55:39.235Z,9.00
2024-02-28T11:58:10.852Z,8.98
2024-02-28T12:00:53.248Z,9.45
2024-02-28T12:03:24.044Z,9.27
2024-02-28T12:05:51.504Z,9.65
2024-02-28T12:08:20.121Z,9.02
2024-02-28T12:10:49.832Z,10.35
2024-02-28T12:13:19.657Z,9.20
2024-02-28T12:15:46.915Z,8.65
2024-02-28T12:18:15.954Z,8.52
2024-02-28T12:20:42.709Z,8.48
2024-02-28T12:23:09.388Z,8.35
2024-02-28T12:25:36.151Z,8.63
2024-02-28T12:28:03.934Z,9.02
2024-02-28T12:30:30.559Z,8.27
2024-02-28T12:32:57.116Z,7.88
2024-02-28T12:35:23.620Z,7.78
2024-02-28T12:37:50.205Z,9.07
2024-02-28T12:40:18.180Z,8.00
2024-02-28T12:42:44.965Z,7.68
2024-02-28T12:45:11.959Z,8.70
2024-02-28T12:47:39.350Z,8.88
2024-02-28T12:50:08.133Z,7.97
2024-02-28T12:52:35.241Z,6.85
2024-02-28T12:55:02.140Z,8.90
2024-02-28T12:57:29.230Z,8.00
2024-02-28T12:59:57.076Z,8.48
2024-02-28T13:02:23.852Z,9.18
2024-02-28T13:04:50.376Z,7.70
2024-02-28T13:07:17.222Z,8.80
2024-02-28T13:09:43.883Z,7.03
2024-02-28T13:12:10.734Z,7.65
2024-02-28T13:14:37.317Z,7.85
2024-02-28T13:17:05.144Z,7.57
2024-02-28T13:19:32.202Z,7.70
2024-02-28T13:21:58.999Z,7.47
2024-02-28T13:24:25.605Z,8.38
2024-02-28T13:26:52.179Z,7.88
2024-02-28T13:29:19.001Z,7.43
2024-02-28T13:31:45.622Z,7.97
2024-02-28T13:34:12.211Z,6.97
2024-02-28T13:36:43.600Z,8.25
2024-02-28T13:39:13.072Z,7.80
2024-02-28T13:41:40.678Z,7.45
2024-02-28T13:44:07.323Z,7.53
2024-02-28T13:46:34.036Z,7.82
2024-02-28T13:49:00.633Z,9.52
2024-02-28T13:51:27.561Z,9.13
2024-02-28T13:53:55.259Z,8.98
2024-02-28T13:56:22.211Z,7.88
2024-02-28T13:58:53.707Z,7.85
2024-02-28T14:01:21.569Z,7.15
2024-02-28T14:03:48.457Z,7.25
2024-02-28T14:06:15.236Z,7.93
2024-02-28T14:08:43.627Z,6.97
2024-02-28T14:11:11.446Z,7.53
2024-02-28T14:13:40.846Z,8.25
2024-02-28T14:16:07.568Z,7.55
2024-02-28T14:18:34.341Z,8.27
2024-02-28T14:21:03.424Z,8.50
2024-02-28T14:23:32.059Z,7.75
2024-02-28T14:25:58.794Z,7.28
2024-02-28T14:28:25.519Z,6.85
2024-02-28T14:30:52.304Z,7.82
2024-02-28T14:33:19.129Z,8.40
2024-02-28T14:35:45.726Z,7.72
2024-02-28T14:38:12.179Z,7.63
2024-02-28T14:40:38.937Z,7.22
2024-02-28T14:43:06.781Z,11.02
2024-02-28T14:45:33.591Z,7.97
2024-02-28T14:48:00.285Z,8.43
2024-02-28T14:50:26.901Z,8.18
2024-02-28T14:52:53.362Z,7.57
2024-02-28T14:55:19.918Z,8.38
2024-02-28T14:57:46.529Z,8.45
2024-02-28T15:00:16.487Z,7.80
2024-02-28T15:05:10.241Z,7.10
2024-02-28T15:07:37.458Z,8.88
2024-02-28T15:10:07.285Z,15.30
2024-02-28T15:12:34.695Z,7.45
2024-02-28T15:15:03.707Z,7.93
2024-02-28T15:17:30.400Z,7.05
2024-02-28T15:19:57.029Z,7.53
2024-02-28T15:22:23.761Z,7.15
2024-02-28T15:24:53.504Z,7.68
2024-02-28T15:27:20.216Z,7.47
2024-02-28T15:29:46.883Z,8.10
2024-02-28T15:32:13.665Z,7.50
2024-02-28T15:34:40.684Z,7.80
2024-02-28T15:37:07.352Z,7.15
2024-02-28T15:39:34.174Z,8.07
2024-02-28T15:42:03.537Z,8.18
2024-02-28T15:44:30.092Z,8.20
2024-02-28T15:46:58.073Z,7.20
2024-02-28T15:49:33.056Z,7.72
2024-02-28T15:52:08.744Z,7.75
2024-02-28T15:54:37.763Z,6.97
2024-02-28T15:57:04.859Z,7.47
2024-02-28T15:59:31.739Z,7.38
2024-02-28T16:02:01.580Z,7.03
2024-02-28T16:04:28.096Z,6.65
2024-02-28T16:06:54.646Z,7.80
2024-02-28T16:09:21.226Z,7.05
2024-02-28T16:11:47.744Z,8.18
2024-02-28T16:14:14.729Z,8.07
2024-02-28T16:16:41.533Z,7.75
2024-02-28T16:19:15.560Z,7.57
2024-02-28T16:21:50.632Z,7.95
2024-02-28T16:24:17.433Z,8.50
2024-02-28T16:26:44.112Z,7.32
2024-02-28T16:29:10.725Z,6.75
2024-02-28T16:31:37.206Z,7.18
2024-02-28T16:34:03.865Z,8.38
2024-02-28T16:36:31.441Z,7.63
2024-02-28T16:38:58.204Z,7.13
2024-02-28T16:41:24.866Z,7.32
2024-02-28T16:43:51.921Z,7.55
2024-02-28T16:46:20.887Z,6.75
2024-02-28T16:48:47.616Z,7.95
2024-02-28T16:51:14.228Z,7.95
2024-02-28T16:53:40.717Z,8.20
2024-02-28T16:56:07.295Z,7.60
2024-02-28T16:58:36.274Z,7.78
2024-02-28T17:01:03.206Z,8.27
2024-02-28T17:03:29.853Z,8.23
2024-02-28T17:05:56.471Z,8.18
2024-02-28T17:08:22.948Z,8.55
2024-02-28T17:10:49.547Z,8.55
2024-02-28T17:13:16.100Z,8.10
2024-02-28T17:15:43.402Z,8.65
2024-02-28T17:18:10.115Z,9.15
2024-02-28T17:20:36.659Z,8.45
2024-02-28T17:23:03.892Z,8.27
2024-02-28T17:25:30.392Z,8.00
2024-02-28T17:27:57.039Z,8.93
2024-02-28T17:30:23.582Z,9.95
2024-02-28T17:32:51.195Z,8.50
2024-02-28T17:35:17.743Z,9.50
2024-02-28T17:37:45.867Z,9.48
2024-02-28T17:40:15.102Z,9.10
2024-02-28T17:42:41.940Z,10.27
2024-02-28T17:45:10.336Z,10.18
2024-02-28T17:47:38.123Z,10.60
2024-02-28T17:50:06.407Z,8.68
2024-02-28T17:52:32.869Z,9.73
2024-02-28T17:54:59.552Z,10.30
2024-02-28T17:57:26.348Z,9.98
2024-02-28T17:59:53.548Z,9.05
2024-02-28T18:02:20.201Z,10.35
2024-02-28T18:04:46.794Z,9.80
2024-02-28T18:07:14.956Z,9.95
2024-02-28T18:09:41.403Z,9.00
2024-02-28T18:12:08.052Z,9.63
2024-02-28T18:14:35.840Z,9.82
2024-02-28T18:17:03.498Z,9.30
2024-02-28T18:19:30.273Z,9.68
2024-02-28T18:21:58.115Z,10.18
2024-02-28T18:24:24.842Z,10.02
2024-02-28T18:26:51.395Z,9.80
2024-02-28T18:29:18.111Z,10.63
2024-02-28T18:31:44.718Z,10.75
2024-02-28T18:34:11.275Z,10.38
2024-02-28T18:36:37.903Z,10.68
2024-02-28T18:39:05.394Z,10.35
2024-02-28T18:41:31.967Z,9.18
2024-02-28T18:43:58.460Z,8.88
2024-02-28T18:46:24.991Z,8.90
2024-02-28T18:48:54.441Z,9.95
2024-02-28T18:51:20.981Z,9.18
2024-02-28T18:53:47.449Z,10.75
2024-02-28T18:56:14.020Z,9.25
2024-02-28T18:58:41.034Z,9.80
2024-02-28T19:01:07.728Z,8.40
2024-02-28T19:03:34.447Z,8.93
2024-02-28T19:06:00.989Z,10.68
2024-02-28T19:08:27.595Z,9.95
2024-02-28T19:10:54.493Z,9.23
2024-02-28T19:13:21.000Z,8.60
2024-02-28T19:15:48.177Z,9.50
2024-02-28T19:18:14.636Z,10.30
2024-02-28T19:20:41.158Z,9.43
2024-02-28T19:23:07.657Z,10.80
2024-02-28T19:25:34.170Z,10.30
2024-02-28T19:28:00.671Z,9.52
2024-02-28T19:30:27.178Z,9.80
2024-02-28T19:32:56.585Z,10.40
2024-02-28T19:35:23.529Z,8.88
2024-02-28T19:37:50.048Z,10.98
2024-02-28T19:40:16.642Z,9.85
2024-02-28T19:42:43.306Z,11.35
2024-02-28T19:45:10.615Z,11.00
2024-02-28T19:47:37.288Z,9.85
2024-02-28T19:50:04.176Z,10.68
2024-02-28T19:52:30.715Z,11.02
2024-02-28T19:54:57.357Z,10.25
2024-02-28T19:57:23.858Z,11.02
2024-02-28T19:59:50.641Z,11.45
2024-02-28T20:02:17.148Z,9.75
2024-02-28T20:04:43.689Z,10.90
2024-02-28T20:07:10.413Z,10.32
2024-02-28T20:09:37.595Z,11.25
2024-02-28T20:12:07.914Z,11.70
2024-02-28T20:14:35.127Z,10.52
2024-02-28T20:17:15.547Z,12.63
2024-02-28T20:19:44.509Z,12.50
2024-02-28T20:22:11.262Z,10.35
2024-02-28T20:24:37.776Z,12.35
2024-02-28T20:27:04.557Z,11.98
2024-02-28T20:29:31.081Z,11.73
2024-02-28T20:31:57.575Z,10.77
2024-02-28T20:34:25.431Z,11.30
2024-02-28T20:36:51.970Z,11.40
2024-02-28T20:39:18.471Z,11.13
2024-02-28T20:41:45.581Z,11.70
2024-02-28T20:44:12.064Z,11.88
2024-02-28T20:46:38.825Z,11.57
2024-02-28T20:49:07.025Z,10.32
2024-02-28T20:51:33.540Z,13.68
2024-02-28T20:54:00.843Z,11.27
2024-02-28T20:56:27.450Z,10.07
2024-02-28T20:58:56.001Z,11.38
2024-02-28T21:01:25.441Z,11.48
2024-02-28T21:04:03.167Z,11.23
2024-02-28T21:06:31.105Z,11.40
2024-02-28T21:08:58.028Z,12.00
2024-02-28T21:11:24.785Z,12.68
2024-02-28T21:13:54.746Z,13.20
2024-02-28T21:16:22.990Z,14.63
2024-02-28T21:18:52.315Z,12.60
2024-02-28T21:21:20.308Z,11.93
2024-02-28T21:23:47.254Z,12.02
2024-02-28T21:26:14.754Z,13.07
2024-02-28T21:28:41.330Z,13.40
2024-02-28T21:31:07.947Z,13.38
2024-02-28T21:33:34.858Z,14.18
2024-02-28T21:36:01.582Z,17.55
2024-02-28T21:38:28.119Z,14.35
2024-02-28T21:40:54.553Z,13.07
2024-02-28T21:43:21.096Z,14.15
2024-02-28T21:45:47.639Z,49.00
2024-02-28T21:48:15.907Z,13.95
2024-02-28T21:50:43.811Z,13.43
2024-02-28T21:53:10.409Z,14.73
2024-02-28T21:55:37.083Z,13.98
2024-02-28T21:58:03.786Z,14.88
2024-02-28T22:00:30.762Z,14.15
2024-02-28T22:02:57.490Z,13.52
2024-02-28T22:05:25.126Z,14.20
2024-02-28T22:07:51.805Z,13.80
2024-02-28T22:10:18.538Z,13.77
2024-02-28T22:12:45.370Z,13.82
2024-02-28T22:15:13.365Z,14.85
2024-02-28T22:17:39.982Z,13.25
2024-02-28T22:20:07.231Z,14.07
2024-02-28T22:22:33.863Z,13.43
2024-02-28T22:25:00.560Z,14.15
2024-02-28T22:27:27.349Z,11.95
2024-02-28T22:29:55.272Z,13.50
2024-02-28T22:32:22.729Z,12.43
2024-02-28T22:34:49.172Z,12.55
2024-02-28T22:37:15.754Z,13.05
2024-02-28T22:39:42.424Z,13.70
2024-02-28T22:42:08.944Z,13.05
2024-02-28T22:44:35.470Z,13.95
2024-02-28T22:47:01.913Z,13.60
2024-02-28T22:49:29.163Z,14.30
2024-02-28T22:51:55.712Z,13.60
2024-02-28T22:54:24.085Z,13.13
2024-02-28T22:56:50.828Z,13.38
2024-02-28T22:59:18.275Z,13.02
2024-02-28T23:01:46.301Z,13.95
2024-02-28T23:04:13.030Z,13.27
2024-02-28T23:06:40.770Z,14.50
2024-02-28T23:09:07.485Z,14.52
2024-02-28T23:11:34.545Z,12.80
2024-02-28T23:14:01.216Z,13.23
2024-02-28T23:16:29.248Z,13.38
2024-02-28T23:18:56.881Z,13.40
2024-02-28T23:21:23.778Z,15.18
2024-02-28T23:23:50.370Z,13.68
2024-02-28T23:26:16.862Z,13.43
2024-02-28T23:28:43.377Z,12.45
2024-02-28T23:31:09.947Z,16.30
2024-02-28T23:33:36.558Z,13.23
2024-02-28T23:36:03.164Z,13.15
2024-02-28T23:38:29.655Z,12.43
2024-02-28T23:40:56.192Z,13.70
2024-02-28T23:43:22.732Z,12.63
2024-02-28T23:45:49.240Z,13.57
2024-02-28T23:48:15.723Z,14.07
2024-02-28T23:50:49.708Z,13.73
2024-02-28T23:53:16.167Z,13.82
2024-02-28T23:55:43.153Z,12.65
2024-02-28T23:58:09.756Z,13.88
